Time;durP1;ratioP1;P1;durP2;ratioP2;P2;SDS_P1;SDS_P2;PMS_P1;PMS_P2;Temp;Humidity;BMP_temperature;BMP_pressure;BME280_temperature;BME280_humidity;BME280_pressure;Samples;Min_cycle;Max_cycle;Signal;HPM_P1;HPM_P2
2023/08/08 00:01:57;;;;;;;5.73;3.97;;;15.00;99.90;;;;;;4997303;28;20652;-80
2023/08/08 00:04:24;;;;;;;6.70;4.57;;;15.00;99.90;;;;;;4997176;28;20261;-79
2023/08/08 00:06:51;;;;;;;8.17;5.10;;;14.90;99.90;;;;;;4990512;28;21054;-80
2023/08/08 00:09:18;;;;;;;11.70;4.93;;;15.00;99.90;;;;;;4965334;28;20215;-80
2023/08/08 00:11:45;;;;;;;11.80;5.93;;;14.90;99.90;;;;;;4998024;28;20250;-80
2023/08/08 00:14:11;;;;;;;8.10;4.57;;;14.90;99.90;;;;;;5007374;28;20238;-79
2023/08/08 00:16:38;;;;;;;8.70;5.60;;;15.00;99.90;;;;;;5008213;28;20199;-82
2023/08/08 00:19:09;;;;;;;9.43;5.37;;;15.00;99.90;;;;;;4992576;28;20230;-80
2023/08/08 00:21:36;;;;;;;9.53;5.10;;;15.00;99.90;;;;;;5001491;28;20212;-80
2023/08/08 00:24:03;;;;;;;13.30;5.73;;;15.00;99.90;;;;;;5001259;28;20211;-81
2023/08/08 00:26:30;;;;;;;7.33;5.23;;;15.00;99.90;;;;;;5004851;28;20236;-80
2023/08/08 00:28:57;;;;;;;8.67;4.97;;;15.00;99.90;;;;;;5000558;28;20211;-79
2023/08/08 00:31:24;;;;;;;10.03;5.23;;;15.00;99.90;;;;;;4986548;28;20218;-80
2023/08/08 00:33:51;;;;;;;10.83;5.57;;;15.10;99.90;;;;;;4985434;28;20455;-79
2023/08/08 00:36:18;;;;;;;12.70;5.83;;;15.10;99.90;;;;;;4990957;28;20348;-80
2023/08/08 00:38:49;;;;;;;9.50;5.53;;;15.00;99.90;;;;;;5009725;28;20198;-80
2023/08/08 00:41:16;;;;;;;11.27;5.30;;;15.00;99.90;;;;;;4978241;28;20211;-80
2023/08/08 00:43:43;;;;;;;6.80;4.73;;;15.00;99.90;;;;;;4995961;28;20207;-80
2023/08/08 00:46:10;;;;;;;13.17;6.07;;;15.10;99.90;;;;;;5009071;28;20203;-81
2023/08/08 00:48:38;;;;;;;9.97;4.87;;;15.00;99.90;;;;;;4997447;28;20589;-79
2023/08/08 00:51:06;;;;;;;8.47;4.97;;;15.10;99.90;;;;;;5009234;28;20217;-81
2023/08/08 00:53:33;;;;;;;13.07;5.33;;;15.10;99.90;;;;;;4992837;28;20207;-80
2023/08/08 00:56:02;;;;;;;9.53;5.03;;;15.10;99.90;;;;;;5001565;28;20210;-81
2023/08/08 00:58:29;;;;;;;7.90;4.37;;;15.20;99.90;;;;;;5011378;28;20223;-79
2023/08/08 01:00:59;;;;;;;8.73;5.50;;;15.20;99.90;;;;;;5012676;28;20202;-80
2023/08/08 01:03:27;;;;;;;8.33;4.90;;;15.60;99.90;;;;;;5008455;28;20727;-81
2023/08/08 01:06:01;;;;;;;10.27;5.10;;;15.10;99.90;;;;;;5009362;28;20219;-81
2023/08/08 01:08:35;;;;;;;9.30;4.97;;;15.10;99.90;;;;;;5013800;28;20621;-80
2023/08/08 01:11:03;;;;;;;9.60;4.90;;;15.10;99.90;;;;;;5006730;28;20203;-80
2023/08/08 01:13:31;;;;;;;12.70;5.27;;;15.40;99.90;;;;;;5008855;28;20249;-80
2023/08/08 01:15:59;;;;;;;7.57;5.07;;;15.10;99.90;;;;;;5007927;28;20215;-80
2023/08/08 01:18:27;;;;;;;13.03;5.93;;;15.10;99.90;;;;;;5005838;28;20306;-80
2023/08/08 01:20:55;;;;;;;11.27;5.47;;;16.10;99.90;;;;;;5002233;28;20237;-80
2023/08/08 01:23:33;;;;;;;9.30;5.13;;;15.00;99.90;;;;;;4998716;28;20210;-79
2023/08/08 01:26:00;;;;;;;9.13;5.03;;;15.00;99.90;;;;;;5004992;28;20218;-79
2023/08/08 01:28:27;;;;;;;8.93;5.10;;;15.00;99.90;;;;;;5007849;28;20566;-81
2023/08/08 01:30:53;;;;;;;10.27;4.93;;;14.90;99.90;;;;;;5008047;28;20218;-80
2023/08/08 01:33:22;;;;;;;7.90;5.87;;;14.90;99.90;;;;;;5013254;28;20312;-78
2023/08/08 01:35:56;;;;;;;9.20;5.30;;;14.90;99.90;;;;;;5010284;28;20226;-80
2023/08/08 01:38:30;;;;;;;9.77;5.47;;;14.90;99.90;;;;;;5008233;28;20207;-80
2023/08/08 01:40:58;;;;;;;9.37;5.07;;;14.90;99.90;;;;;;4993697;28;20206;-79
2023/08/08 01:43:26;;;;;;;14.90;5.57;;;14.90;99.90;;;;;;4975818;28;20281;-80
2023/08/08 01:45:54;;;;;;;8.63;5.20;;;14.50;99.90;;;;;;5003562;28;20214;-80
2023/08/08 01:48:21;;;;;;;15.73;5.73;;;14.80;99.90;;;;;;5008483;28;20611;-80
2023/08/08 01:50:48;;;;;;;8.67;5.00;;;14.70;99.90;;;;;;5003657;28;20512;-80
2023/08/08 01:53:14;;;;;;;8.33;4.77;;;14.90;99.90;;;;;;5005840;28;20288;-81
2023/08/08 01:55:41;;;;;;;9.00;4.93;;;14.90;99.90;;;;;;4983490;28;20219;-80
2023/08/08 01:58:08;;;;;;;14.30;5.20;;;15.00;99.90;;;;;;4995653;28;20605;-78
2023/08/08 02:00:36;;;;;;;7.37;4.53;;;15.00;99.90;;;;;;5005506;28;20202;-78
2023/08/08 02:03:04;;;;;;;11.80;5.03;;;15.00;99.90;;;;;;4999065;28;20214;-81
2023/08/08 02:05:31;;;;;;;12.30;5.33;;;15.00;99.90;;;;;;5002715;28;20202;-80
2023/08/08 02:07:58;;;;;;;8.23;5.07;;;15.00;99.90;;;;;;5001939;28;20276;-80
2023/08/08 02:10:25;;;;;;;12.53;5.07;;;15.00;99.90;;;;;;4999472;28;20723;-79
2023/08/08 02:12:52;;;;;;;10.93;5.40;;;15.00;99.90;;;;;;5000976;28;20325;-80
2023/08/08 02:15:19;;;;;;;8.90;4.93;;;15.00;99.90;;;;;;5008313;28;20363;-79
2023/08/08 02:17:47;;;;;;;11.57;5.33;;;15.00;99.90;;;;;;5000346;28;20203;-79
2023/08/08 02:20:14;;;;;;;9.20;5.10;;;15.30;99.90;;;;;;5011561;28;20293;-81
2023/08/08 02:22:40;;;;;;;10.70;4.93;;;15.10;99.90;;;;;;4989676;28;20266;-80
2023/08/08 02:25:08;;;;;;;14.07;5.10;;;15.10;99.90;;;;;;5004273;28;20202;-80
2023/08/08 02:27:35;;;;;;;5.70;4.10;;;15.20;99.90;;;;;;5006174;28;20222;-81
2023/08/08 02:30:02;;;;;;;9.77;4.50;;;15.10;99.90;;;;;;5008895;28;20218;-79
2023/08/08 02:32:32;;;;;;;12.77;5.17;;;15.20;99.90;;;;;;5010059;28;20218;-80
2023/08/08 02:35:00;;;;;;;10.43;4.40;;;15.00;99.90;;;;;;5007159;28;20245;-78
2023/08/08 02:37:26;;;;;;;8.23;4.50;;;15.10;99.90;;;;;;5014201;28;20218;-80
2023/08/08 02:39:53;;;;;;;9.83;5.50;;;15.00;99.90;;;;;;4997591;28;20254;-80
2023/08/08 02:42:20;;;;;;;12.93;5.00;;;15.30;99.90;;;;;;5009750;28;20264;-79
2023/08/08 02:44:47;;;;;;;12.33;5.53;;;15.10;99.90;;;;;;5014442;28;20737;-81
2023/08/08 02:47:14;;;;;;;7.50;4.80;;;15.60;99.90;;;;;;5021095;28;20210;-80
2023/08/08 02:49:41;;;;;;;9.00;4.87;;;15.00;99.90;;;;;;5010147;28;20234;-80
2023/08/08 02:52:08;;;;;;;9.97;4.40;;;15.10;99.90;;;;;;5032817;28;20214;-78
2023/08/08 02:54:35;;;;;;;10.87;4.87;;;15.70;99.90;;;;;;5019458;28;20235;-78
2023/08/08 02:57:04;;;;;;;10.90;4.93;;;15.10;99.90;;;;;;5018388;28;20202;-80
2023/08/08 02:59:31;;;;;;;13.00;4.87;;;15.10;99.90;;;;;;5016047;28;20234;-78
2023/08/08 03:01:57;;;;;;;10.57;4.70;;;15.10;99.90;;;;;;5005285;28;20623;-80
2023/08/08 03:04:25;;;;;;;12.23;5.03;;;15.00;99.90;;;;;;4997918;28;20296;-80
2023/08/08 03:06:51;;;;;;;11.20;4.10;;;15.00;99.90;;;;;;5001662;28;20245;-79
2023/08/08 03:09:18;;;;;;;10.40;4.67;;;15.00;99.90;;;;;;5010246;28;20211;-78
2023/08/08 03:11:45;;;;;;;8.07;4.27;;;14.90;99.90;;;;;;4998402;28;20301;-78
2023/08/08 03:14:12;;;;;;;9.67;4.90;;;14.90;99.90;;;;;;5005025;28;20243;-78
2023/08/08 03:16:39;;;;;;;10.17;4.57;;;14.90;99.90;;;;;;5010431;28;20207;-78
2023/08/08 03:19:06;;;;;;;10.00;4.83;;;14.90;99.90;;;;;;4998634;28;20211;-78
2023/08/08 03:21:33;;;;;;;12.70;5.17;;;14.90;99.90;;;;;;5001030;28;20636;-79
2023/08/08 03:24:00;;;;;;;10.20;4.60;;;14.90;99.90;;;;;;5009296;28;20274;-80
2023/08/08 03:26:27;;;;;;;9.97;4.63;;;14.90;99.90;;;;;;5000804;28;20230;-78
2023/08/08 03:28:54;;;;;;;11.43;5.37;;;15.10;99.90;;;;;;5005560;28;20297;-78
2023/08/08 03:31:31;;;;;;;12.60;5.10;;;14.90;99.90;;;;;;4997086;28;20215;-80
2023/08/08 03:34:13;;;;;;;11.13;5.13;;;15.00;99.90;;;;;;4998880;28;20203;-81
2023/08/08 03:36:41;;;;;;;10.67;5.13;;;14.90;99.90;;;;;;5012406;28;20202;-80
2023/08/08 03:39:09;;;;;;;9.20;4.90;;;14.90;99.90;;;;;;5006547;28;20203;-79
2023/08/08 03:41:36;;;;;;;11.30;5.13;;;15.00;99.90;;;;;;4994666;28;20265;-81
2023/08/08 03:44:03;;;;;;;10.37;4.90;;;15.00;99.90;;;;;;5000730;28;20277;-79
2023/08/08 03:46:31;;;;;;;9.57;5.50;;;15.00;99.90;;;;;;5010459;28;20284;-81
2023/08/08 03:49:00;;;;;;;12.30;5.43;;;15.00;99.90;;;;;;4999567;28;20277;-80
2023/08/08 03:51:27;;;;;;;9.13;5.03;;;15.00;99.90;;;;;;4997331;28;20207;-81
2023/08/08 03:54:04;;;;;;;12.53;5.73;;;14.90;99.90;;;;;;4991421;28;20297;-80
2023/08/08 03:57:12;;;;;;;10.67;5.03;;;14.90;99.90;;;;;;5009137;28;20276;-80
2023/08/08 03:59:39;;;;;;;11.30;4.83;;;15.00;99.90;;;;;;4981773;28;20238;-81
2023/08/08 04:02:06;;;;;;;12.00;4.87;;;15.00;99.90;;;;;;4996604;28;20207;-82
2023/08/08 04:04:46;;;;;;;;;;;;;;;;;;;;;
2023/08/08 04:07:25;;;;;;;13.00;5.00;;;14.90;99.90;;;;;;5002430;28;20214;-79
2023/08/08 04:09:52;;;;;;;8.90;5.07;;;14.90;99.90;;;;;;5001978;28;20261;-81
2023/08/08 04:12:19;;;;;;;9.17;5.20;;;14.90;99.90;;;;;;5005695;28;20226;-81
2023/08/08 04:14:52;;;;;;;12.57;5.77;;;14.80;99.90;;;;;;5006822;28;20288;-81
2023/08/08 04:17:19;;;;;;;17.77;5.23;;;14.80;99.90;;;;;;5001631;28;20198;-81
2023/08/08 04:19:47;;;;;;;14.83;5.37;;;14.80;99.90;;;;;;4992839;28;20223;-80
2023/08/08 04:22:15;;;;;;;13.70;5.40;;;14.80;99.90;;;;;;5004158;28;20214;-81
2023/08/08 04:24:42;;;;;;;10.23;5.53;;;14.80;99.90;;;;;;5008039;28;20225;-80
2023/08/08 04:27:10;;;;;;;8.83;5.07;;;14.70;99.90;;;;;;5005649;28;20226;-80
2023/08/08 04:29:36;;;;;;;15.90;5.60;;;14.80;99.90;;;;;;5006345;28;20207;-80
2023/08/08 04:32:04;;;;;;;11.27;5.40;;;14.90;99.90;;;;;;5009000;28;20611;-80
2023/08/08 04:34:31;;;;;;;8.33;5.33;;;14.90;99.90;;;;;;5000305;28;20214;-81
2023/08/08 04:36:57;;;;;;;12.40;4.93;;;14.90;99.90;;;;;;5011176;28;20207;-81
2023/08/08 04:39:24;;;;;;;14.00;5.47;;;14.90;99.90;;;;;;5005676;28;20294;-82
2023/08/08 04:41:51;;;;;;;10.40;5.50;;;14.90;99.90;;;;;;5003765;28;20245;-80
2023/08/08 04:44:18;;;;;;;11.80;4.93;;;14.90;99.90;;;;;;5005759;28;20207;-80
2023/08/08 04:46:45;;;;;;;12.03;6.07;;;15.20;99.90;;;;;;5009159;28;20207;-81
2023/08/08 04:49:12;;;;;;;9.47;5.20;;;14.90;99.90;;;;;;5005999;28;20202;-79
2023/08/08 04:51:41;;;;;;;10.83;5.20;;;15.40;99.90;;;;;;4988860;28;20214;-80
2023/08/08 04:54:08;;;;;;;11.27;5.17;;;15.00;99.90;;;;;;5001744;28;20207;-81
2023/08/08 04:56:35;;;;;;;8.93;5.10;;;15.00;99.90;;;;;;4997264;28;20292;-81
2023/08/08 04:59:02;;;;;;;9.87;4.80;;;15.00;99.90;;;;;;5001329;28;20310;-81
2023/08/08 05:01:29;;;;;;;9.33;5.37;;;15.00;99.90;;;;;;5004098;28;20203;-81
2023/08/08 05:03:55;;;;;;;10.00;5.07;;;15.00;99.90;;;;;;5005080;28;20307;-81
2023/08/08 05:06:22;;;;;;;12.43;5.53;;;14.90;99.90;;;;;;4999923;28;20210;-82
2023/08/08 05:08:52;;;;;;;12.17;5.40;;;15.00;99.90;;;;;;4985600;28;20272;-82
2023/08/08 05:11:18;;;;;;;9.43;5.27;;;15.70;99.90;;;;;;4987150;28;20572;-81
2023/08/08 05:13:45;;;;;;;10.83;5.60;;;15.00;99.90;;;;;;5006824;28;20654;-81
2023/08/08 05:16:12;;;;;;;10.90;5.80;;;14.40;99.90;;;;;;4988177;28;20261;-82
2023/08/08 05:18:39;;;;;;;12.00;5.80;;;15.00;99.90;;;;;;5004656;28;20214;-83
2023/08/08 05:21:06;;;;;;;7.80;5.13;;;14.80;99.90;;;;;;5008938;28;20675;-81
2023/08/08 05:23:34;;;;;;;8.20;4.77;;;15.10;99.90;;;;;;4991949;28;21459;-81
2023/08/08 05:26:00;;;;;;;8.03;5.13;;;15.20;99.90;;;;;;5008702;28;20219;-81
2023/08/08 05:28:27;;;;;;;13.03;5.03;;;15.30;99.90;;;;;;5005778;28;20281;-82
2023/08/08 05:30:56;;;;;;;11.37;4.60;;;15.30;99.90;;;;;;4988679;28;20675;-81
2023/08/08 05:33:22;;;;;;;7.85;5.00;;;15.50;99.90;;;;;;5003943;28;20651;-80
2023/08/08 05:35:49;;;;;;;8.57;4.22;;;15.50;99.90;;;;;;5004541;28;20269;-82
2023/08/08 05:38:16;;;;;;;9.60;4.50;;;;;;;;;;4996613;28;20203;-81
2023/08/08 05:40:43;;;;;;;8.93;4.72;;;15.70;99.90;;;;;;5011394;28;20207;-81
2023/08/08 05:43:10;;;;;;;7.80;4.40;;;15.80;99.90;;;;;;5010461;28;20251;-82
2023/08/08 05:45:37;;;;;;;12.60;4.65;;;15.80;99.90;;;;;;5005823;28;20260;-80
2023/08/08 05:48:04;;;;;;;10.07;4.05;;;15.80;99.90;;;;;;5006010;28;20541;-81
2023/08/08 05:50:32;;;;;;;8.05;4.10;;;15.80;99.90;;;;;;4993177;28;20257;-80
2023/08/08 05:52:59;;;;;;;10.85;4.63;;;15.80;99.90;;;;;;5002981;28;20215;-80
2023/08/08 05:55:26;;;;;;;8.15;4.60;;;15.90;99.90;;;;;;5006835;28;20226;-80
2023/08/08 05:57:54;;;;;;;9.07;4.28;;;15.90;99.90;;;;;;4997461;28;20226;-80
2023/08/08 06:00:21;;;;;;;9.30;4.70;;;15.70;99.90;;;;;;5009463;28;20199;-81
2023/08/08 06:02:47;;;;;;;8.85;4.40;;;15.90;99.90;;;;;;5010173;28;20214;-82
2023/08/08 06:05:17;;;;;;;9.32;4.15;;;;;;;;;;5007760;28;20234;-82
2023/08/08 06:07:45;;;;;;;4.88;2.90;;;17.00;99.90;;;;;;5011659;28;20225;-81
2023/08/08 06:10:12;;;;;;;4.05;2.70;;;17.80;99.90;;;;;;5011773;28;20213;-82
2023/08/08 06:12:39;;;;;;;4.90;2.65;;;18.80;99.90;;;;;;5011416;28;20222;-81
2023/08/08 06:15:06;;;;;;;5.50;2.22;;;19.60;99.90;;;;;;5011243;28;20730;-82
2023/08/08 06:17:33;;;;;;;6.72;1.92;;;20.40;99.90;;;;;;5011479;28;20203;-81
2023/08/08 06:20:00;;;;;;;3.90;2.33;;;20.90;99.90;;;;;;5002445;28;20199;-82
2023/08/08 06:22:27;;;;;;;4.90;2.17;;;21.30;99.90;;;;;;4995062;28;20198;-83
2023/08/08 06:24:54;;;;;;;4.53;1.67;;;;;;;;;;5013088;28;20219;-82
2023/08/08 06:27:21;;;;;;;5.00;1.95;;;21.90;99.90;;;;;;5012367;28;20237;-82
2023/08/08 06:29:48;;;;;;;6.30;1.80;;;22.40;99.90;;;;;;5009076;28;20707;-83
2023/08/08 06:32:15;;;;;;;5.55;1.58;;;23.10;99.90;;;;;;5008463;28;20218;-82
2023/08/08 06:34:41;;;;;;;2.42;1.40;;;23.70;99.90;;;;;;4995176;28;20202;-81
2023/08/08 06:37:08;;;;;;;3.72;1.40;;;24.00;99.90;;;;;;5012729;28;20745;-82
2023/08/08 06:39:38;;;;;;;2.95;1.52;;;24.40;99.90;;;;;;4998044;28;20237;-83
2023/08/08 06:42:05;;;;;;;4.60;1.40;;;24.50;99.90;;;;;;5003182;28;20216;-85
2023/08/08 06:44:32;;;;;;;2.80;1.13;;;24.30;99.90;;;;;;5012593;28;20198;-85
2023/08/08 06:46:59;;;;;;;4.40;1.45;;;24.40;99.90;;;;;;5012145;28;20211;-85
2023/08/08 06:49:26;;;;;;;1.73;1.30;;;24.40;99.90;;;;;;4998427;28;20254;-84
2023/08/08 06:51:53;;;;;;;2.22;1.30;;;24.30;99.90;;;;;;5012373;28;20214;-83
2023/08/08 06:54:19;;;;;;;4.28;1.48;;;24.50;99.90;;;;;;5014010;28;20241;-84
2023/08/08 06:56:46;;;;;;;3.90;1.50;;;24.50;99.90;;;;;;5019511;28;20261;-83
2023/08/08 06:59:14;;;;;;;4.38;1.63;;;24.30;99.90;;;;;;4999824;28;20199;-82
2023/08/08 07:01:41;;;;;;;1.75;1.17;;;24.50;99.90;;;;;;5014892;28;20202;-82
2023/08/08 07:04:08;;;;;;;2.30;1.30;;;24.20;99.90;;;;;;5015037;28;20203;-82
2023/08/08 07:06:36;;;;;;;3.17;1.20;;;24.60;99.90;;;;;;5009791;28;20210;-83
2023/08/08 07:09:03;;;;;;;3.47;1.15;;;24.90;99.90;;;;;;5013891;28;20207;-84
2023/08/08 07:11:30;;;;;;;5.28;1.40;;;24.80;99.90;;;;;;5002441;28;20242;-84
2023/08/08 07:13:57;;;;;;;2.58;0.90;;;25.10;99.90;;;;;;5018184;28;20238;-84
2023/08/08 07:16:23;;;;;;;3.17;1.30;;;25.10;99.90;;;;;;5021480;28;20233;-84
2023/08/08 07:18:50;;;;;;;2.63;1.13;;;25.00;99.90;;;;;;5017961;28;20222;-84
2023/08/08 07:21:20;;;;;;;3.38;1.20;;;;;;;;;;5018526;28;20199;-85
2023/08/08 07:23:47;;;;;;;2.47;0.73;;;25.00;99.90;;;;;;5013282;28;20191;-82
2023/08/08 07:26:14;;;;;;;2.10;0.90;;;24.90;99.90;;;;;;5017615;28;20203;-82
2023/08/08 07:28:41;;;;;;;3.25;1.30;;;24.80;99.90;;;;;;5011964;28;20215;-83
2023/08/08 07:31:09;;;;;;;3.65;0.95;;;25.00;99.90;;;;;;5020680;28;20216;-82
2023/08/08 07:33:36;;;;;;;2.50;0.82;;;24.90;99.90;;;;;;5015922;28;20663;-85
2023/08/08 07:36:03;;;;;;;3.80;1.70;;;25.10;99.90;;;;;;4999320;28;20234;-81
2023/08/08 07:38:29;;;;;;;2.45;1.27;;;25.30;99.90;;;;;;5015336;28;20268;-82
2023/08/08 07:40:56;;;;;;;4.57;0.90;;;25.40;99.90;;;;;;5016686;28;20230;-83
2023/08/08 07:43:24;;;;;;;1.58;0.90;;;25.00;99.90;;;;;;4998575;28;20219;-83
2023/08/08 07:45:51;;;;;;;2.65;0.98;;;25.00;99.90;;;;;;5016315;28;20199;-83
2023/08/08 07:48:17;;;;;;;2.83;0.80;;;25.00;99.90;;;;;;5018248;28;20272;-83
2023/08/08 07:50:44;;;;;;;2.75;0.95;;;24.90;99.90;;;;;;5012368;28;20237;-84
2023/08/08 07:53:11;;;;;;;1.15;0.80;;;25.10;99.90;;;;;;5014689;28;20210;-85
2023/08/08 07:55:38;;;;;;;3.72;1.15;;;25.00;99.90;;;;;;4994784;28;20237;-81
2023/08/08 07:58:05;;;;;;;2.55;0.77;;;24.80;99.90;;;;;;5013648;28;20269;-82
2023/08/08 08:00:32;;;;;;;2.70;1.00;;;24.80;99.90;;;;;;5015661;28;20237;-86
2023/08/08 08:02:59;;;;;;;2.10;0.98;;;24.90;99.90;;;;;;5017400;28;20201;-82
2023/08/08 08:05:26;;;;;;;2.67;0.80;;;24.70;99.90;;;;;;4999553;28;20213;-84
2023/08/08 08:07:53;;;;;;;1.88;0.73;;;24.60;99.90;;;;;;5001367;28;20595;-83
2023/08/08 08:10:19;;;;;;;4.05;1.15;;;24.70;99.90;;;;;;5000882;28;20218;-81
2023/08/08 08:12:46;;;;;;;2.28;0.70;;;24.70;99.90;;;;;;5016571;28;20210;-82
2023/08/08 08:15:13;;;;;;;4.25;0.70;;;24.60;99.90;;;;;;5020365;28;20284;-82
2023/08/08 08:17:41;;;;;;;2.53;0.77;;;24.60;99.90;;;;;;5014687;28;20214;-81
2023/08/08 08:20:11;;;;;;;1.35;0.90;;;24.50;99.90;;;;;;5013265;28;20217;-81
2023/08/08 08:22:38;;;;;;;1.65;0.70;;;24.30;99.90;;;;;;5029238;28;20211;-80
2023/08/08 08:25:09;;;;;;;1.45;0.80;;;24.10;99.90;;;;;;5035028;28;20195;-78
2023/08/08 08:27:36;;;;;;;2.55;1.35;;;24.00;99.90;;;;;;5025538;28;20209;-82
2023/08/08 08:30:09;;;;;;;3.05;0.80;;;24.20;99.90;;;;;;5023507;28;20645;-79
2023/08/08 08:32:37;;;;;;;2.35;0.80;;;24.10;99.90;;;;;;5010169;28;20221;-80
2023/08/08 08:35:06;;;;;;;2.92;0.70;;;24.00;99.90;;;;;;5010388;28;20206;-81
2023/08/08 08:37:33;;;;;;;3.58;0.80;;;23.90;99.90;;;;;;5009849;28;20281;-81
2023/08/08 08:40:00;;;;;;;2.83;0.88;;;23.90;99.90;;;;;;5014186;28;20203;-83
2023/08/08 08:42:28;;;;;;;3.28;1.42;;;23.90;99.90;;;;;;5009122;28;20227;-80
2023/08/08 08:44:59;;;;;;;1.55;0.60;;;24.00;99.90;;;;;;5017780;28;20246;-83
2023/08/08 08:47:28;;;;;;;3.42;0.90;;;24.10;99.90;;;;;;4990617;28;20241;-81
2023/08/08 08:49:56;;;;;;;2.92;1.00;;;24.20;99.90;;;;;;5003967;28;20234;-83
2023/08/08 08:52:23;;;;;;;1.85;0.95;;;24.10;99.90;;;;;;4993475;28;20207;-81
2023/08/08 08:54:51;;;;;;;1.20;0.70;;;24.10;99.90;;;;;;5003395;28;20660;-84
2023/08/08 08:57:20;;;;;;;1.50;0.70;;;23.90;99.90;;;;;;5001518;28;20415;-82
2023/08/08 08:59:47;;;;;;;2.03;1.00;;;24.00;99.90;;;;;;5012650;28;20565;-82
2023/08/08 09:02:18;;;;;;;3.42;0.70;;;23.90;99.90;;;;;;4993585;28;20203;-82
2023/08/08 09:04:45;;;;;;;1.10;0.75;;;23.60;99.90;;;;;;4992062;28;20210;-79
2023/08/08 09:07:14;;;;;;;4.35;0.70;;;23.00;99.90;;;;;;5005981;28;20677;-82
2023/08/08 09:09:43;;;;;;;1.00;0.60;;;22.60;99.90;;;;;;4992138;28;20210;-81
2023/08/08 09:12:10;;;;;;;5.45;0.98;;;22.60;99.90;;;;;;4997650;28;20579;-81
2023/08/08 09:14:41;;;;;;;1.42;0.60;;;22.80;99.90;;;;;;5014175;28;20241;-84
2023/08/08 09:17:13;;;;;;;1.83;0.65;;;23.00;99.90;;;;;;4996813;28;20292;-82
2023/08/08 09:19:44;;;;;;;2.20;0.70;;;23.20;99.90;;;;;;5013905;28;20199;-81
2023/08/08 09:22:13;;;;;;;1.23;0.60;;;23.20;99.90;;;;;;5013264;28;20210;-80
2023/08/08 09:24:40;;;;;;;2.20;1.10;;;23.20;99.90;;;;;;4997444;28;20207;-82
2023/08/08 09:27:09;;;;;;;1.58;0.90;;;23.00;99.90;;;;;;5015034;28;20236;-84
2023/08/08 09:29:37;;;;;;;1.95;0.60;;;22.80;99.90;;;;;;5010070;28;20211;-83
2023/08/08 09:32:05;;;;;;;1.30;0.65;;;22.50;99.90;;;;;;5007430;28;20207;-82
2023/08/08 09:34:32;;;;;;;1.88;0.80;;;22.50;99.90;;;;;;4995587;28;20210;-83
2023/08/08 09:37:00;;;;;;;2.50;0.68;;;22.80;99.90;;;;;;5003237;28;20260;-82
2023/08/08 09:39:28;;;;;;;2.17;0.77;;;22.90;99.90;;;;;;4996014;28;20211;-83
2023/08/08 09:41:58;;;;;;;1.27;0.60;;;22.90;99.90;;;;;;4994634;28;20234;-83
2023/08/08 09:44:29;;;;;;;1.42;0.70;;;22.80;99.90;;;;;;5006268;28;20210;-83
2023/08/08 09:46:56;;;;;;;0.65;0.47;;;22.50;99.90;;;;;;4991402;28;20302;-82
2023/08/08 09:49:23;;;;;;;3.63;0.70;;;22.20;99.90;;;;;;4988124;28;20218;-85
2023/08/08 09:51:50;;;;;;;1.83;0.50;;;22.10;99.90;;;;;;4987561;28;20217;-84
2023/08/08 09:54:18;;;;;;;0.70;0.50;;;22.40;99.90;;;;;;5006044;28;20215;-83
2023/08/08 09:56:45;;;;;;;1.55;0.60;;;22.40;99.90;;;;;;4991905;28;20237;-83
2023/08/08 09:59:13;;;;;;;1.15;0.60;;;22.40;99.90;;;;;;5006119;28;20206;-86
2023/08/08 10:01:41;;;;;;;1.17;0.60;;;22.30;99.90;;;;;;5007521;28;20674;-88
2023/08/08 10:04:11;;;;;;;1.42;0.68;;;22.40;99.90;;;;;;5006046;28;20609;-86
2023/08/08 10:06:38;;;;;;;3.05;0.60;;;22.50;99.90;;;;;;5010868;28;20585;-84
2023/08/08 10:09:06;;;;;;;1.55;0.68;;;22.70;99.90;;;;;;5005455;28;20234;-81
2023/08/08 10:11:34;;;;;;;2.05;0.60;;;23.00;99.90;;;;;;5000471;28;20242;-83
2023/08/08 10:14:04;;;;;;;1.25;0.60;;;23.20;99.90;;;;;;5011310;28;20238;-81
2023/08/08 10:16:34;;;;;;;1.65;0.60;;;22.70;99.90;;;;;;4998453;28;20269;-84
2023/08/08 10:19:03;;;;;;;0.63;0.50;;;22.50;99.90;;;;;;5005326;28;20202;-84
2023/08/08 10:21:35;;;;;;;1.20;0.50;;;22.30;99.90;;;;;;4999058;28;20652;-85
2023/08/08 10:24:09;;;;;;;1.20;0.50;;;22.30;99.90;;;;;;4997570;28;20541;-84
2023/08/08 10:26:57;;;;;;;1.10;0.60;;;22.50;99.90;;;;;;5004737;28;20264;-84
2023/08/08 10:29:26;;;;;;;0.75;0.50;;;22.60;99.90;;;;;;4997317;28;20225;-85
2023/08/08 10:31:59;;;;;;;1.20;0.70;;;22.40;99.90;;;;;;5008773;28;20206;-85
2023/08/08 10:34:43;;;;;;;1.10;0.55;;;22.20;99.90;;;;;;5006475;28;20721;-85
2023/08/08 10:37:12;;;;;;;2.92;0.80;;;22.40;99.90;;;;;;4986244;28;20241;-84
2023/08/08 10:39:52;;;;;;;1.83;0.98;;;22.50;99.90;;;;;;5005927;28;20202;-85
2023/08/08 10:42:20;;;;;;;1.17;0.90;;;22.70;99.90;;;;;;5005941;28;20623;-85
2023/08/08 10:44:59;;;;;;;1.63;0.70;;;22.60;99.90;;;;;;5005993;28;20221;-87
2023/08/08 10:47:36;;;;;;;2.88;0.70;;;22.30;99.90;;;;;;4985198;28;20207;-84
2023/08/08 10:50:06;;;;;;;1.02;0.77;;;21.90;99.90;;;;;;5003208;28;20202;-85
2023/08/08 10:52:37;;;;;;;1.50;0.70;;;21.90;99.90;;;;;;4993452;28;20214;-83
2023/08/08 10:55:05;;;;;;;0.60;0.60;;;21.70;99.90;;;;;;5005391;28;20221;-82
2023/08/08 10:57:32;;;;;;;0.68;0.60;;;21.60;99.90;;;;;;4992687;28;20226;-84
2023/08/08 11:00:17;;;;;;;2.33;0.70;;;21.60;99.90;;;;;;5006042;28;20202;-87
2023/08/08 11:02:44;;;;;;;0.50;0.50;;;21.50;99.90;;;;;;4998268;28;20202;-85
2023/08/08 11:05:12;;;;;;;1.55;0.65;;;21.60;99.90;;;;;;5002514;28;20219;-85
2023/08/08 11:07:41;;;;;;;1.58;0.70;;;21.80;99.90;;;;;;5015246;28;20337;-85
2023/08/08 11:10:08;;;;;;;2.40;0.65;;;21.70;99.90;;;;;;5013273;28;20241;-82
2023/08/08 11:12:35;;;;;;;0.60;0.60;;;21.50;99.90;;;;;;4993018;28;20210;-82
2023/08/08 11:15:02;;;;;;;0.93;0.60;;;21.30;99.90;;;;;;5013074;28;20668;-81
2023/08/08 11:17:30;;;;;;;1.00;0.70;;;21.50;99.90;;;;;;4988905;28;20254;-84
2023/08/08 11:19:56;;;;;;;2.20;0.73;;;21.50;99.90;;;;;;4996199;28;20238;-84
2023/08/08 11:22:24;;;;;;;1.35;0.60;;;21.80;99.90;;;;;;5006098;28;20668;-87
2023/08/08 11:24:51;;;;;;;0.68;0.68;;;22.20;99.90;;;;;;4986314;28;20634;-86
2023/08/08 11:27:18;;;;;;;0.80;0.65;;;22.20;99.90;;;;;;4997327;28;20223;-85
2023/08/08 11:29:51;;;;;;;2.92;0.90;;;22.10;99.90;;;;;;5005745;28;20238;-81
2023/08/08 11:32:18;;;;;;;1.00;0.65;;;21.90;99.90;;;;;;5010056;28;20228;-84
2023/08/08 11:34:47;;;;;;;2.30;0.80;;;21.80;99.90;;;;;;5005066;28;20237;-81
2023/08/08 11:37:15;;;;;;;0.55;0.55;;;21.70;99.90;;;;;;4988629;28;20231;-86
2023/08/08 11:39:42;;;;;;;2.10;0.85;;;21.50;99.90;;;;;;4987493;28;20561;-84
2023/08/08 11:42:09;;;;;;;3.55;0.60;;;21.60;99.90;;;;;;5005219;28;20227;-84
2023/08/08 11:44:37;;;;;;;1.50;0.70;;;21.70;99.90;;;;;;5005128;28;20203;-83
2023/08/08 11:47:04;;;;;;;2.60;0.70;;;21.80;99.90;;;;;;4992288;28;20202;-81
2023/08/08 11:49:40;;;;;;;1.52;0.68;;;21.90;99.90;;;;;;5005485;28;20206;-81
2023/08/08 11:52:08;;;;;;;1.02;0.60;;;21.90;99.90;;;;;;5004940;28;20222;-82
2023/08/08 11:54:38;;;;;;;0.77;0.70;;;21.80;99.90;;;;;;5005169;28;20320;-84
2023/08/08 11:57:05;;;;;;;0.70;0.65;;;21.70;99.90;;;;;;4989729;28;20711;-86
2023/08/08 11:59:33;;;;;;;0.52;0.52;;;21.70;99.90;;;;;;4996395;28;20211;-83
2023/08/08 12:02:00;;;;;;;1.73;1.08;;;21.90;99.90;;;;;;4987650;28;20213;-86
2023/08/08 12:04:27;;;;;;;1.33;0.70;;;22.00;99.90;;;;;;4994598;28;20516;-81
2023/08/08 12:07:02;;;;;;;1.63;0.80;;;22.20;99.90;;;;;;5008547;28;20265;-84
2023/08/08 12:09:32;;;;;;;1.25;0.70;;;22.20;99.90;;;;;;5009997;28;20214;-83
2023/08/08 12:12:02;;;;;;;0.93;0.70;;;22.20;99.90;;;;;;4986822;28;20235;-84
2023/08/08 12:14:36;;;;;;;2.08;0.80;;;22.20;99.90;;;;;;4992292;28;20322;-84
2023/08/08 12:17:17;;;;;;;3.00;0.70;;;22.00;99.90;;;;;;5006364;28;20253;-85
2023/08/08 12:19:48;;;;;;;1.15;0.80;;;21.90;99.90;;;;;;4988336;28;20202;-86
2023/08/08 12:22:15;;;;;;;4.05;1.63;;;21.90;99.90;;;;;;5007584;28;20904;-89
2023/08/08 12:24:42;;;;;;;1.50;0.77;;;21.90;99.90;;;;;;4991614;28;20664;-83
2023/08/08 12:27:09;;;;;;;1.75;0.70;;;22.00;99.90;;;;;;5008989;28;20238;-82
2023/08/08 12:29:35;;;;;;;0.98;0.70;;;22.00;99.90;;;;;;5005860;28;20215;-84
2023/08/08 12:32:07;;;;;;;3.03;0.70;;;21.80;99.90;;;;;;5004124;28;20284;-84
2023/08/08 12:34:35;;;;;;;0.82;0.60;;;21.90;99.90;;;;;;4987283;28;20221;-81
2023/08/08 12:37:02;;;;;;;2.00;0.75;;;21.90;99.90;;;;;;5004146;28;20227;-83
2023/08/08 12:39:29;;;;;;;0.60;0.60;;;21.90;99.90;;;;;;5004492;28;20213;-85
2023/08/08 12:41:56;;;;;;;1.40;1.10;;;22.00;99.90;;;;;;4990389;28;20687;-86
2023/08/08 12:44:23;;;;;;;1.40;0.73;;;22.10;99.90;;;;;;4989340;28;20636;-83
2023/08/08 12:46:51;;;;;;;1.23;0.90;;;22.10;99.90;;;;;;4998758;28;20210;-84
2023/08/08 12:49:18;;;;;;;1.33;0.70;;;22.00;99.90;;;;;;4990269;28;20238;-84
2023/08/08 12:51:45;;;;;;;1.90;0.80;;;22.30;99.90;;;;;;5004620;28;20636;-82
2023/08/08 12:54:12;;;;;;;1.73;0.80;;;22.40;99.90;;;;;;5006250;28;20186;-82